Tiempo atmosférico en la estación meteorológica de Monforte De Lemos, Lugo (291 m.)



Fecha
DESCASC
Temp. máxima en grados centígrados (hora)
DESCASC
Temp. mínima en grados centígrados (hora)
DESCASC
Temp. media en grados centígrados
DESCASC
Racha de viento máxima en m/sg (hora)
DESCASC
Velocidad máxima media en intervalos de 10 minutos(hora)
DESCASC
Precipitaciones diarias en mm
DESCASC
Precipitaciones de 00:00 a 06:00 en mm
DESCASC
Precipitaciones de 06:00 a 12:00 en mm
DESCASC
Precipitaciones de 12:00 a 18:00 en mm
DESCASC
Precipitaciones de 18:00 a 24:00 en mm
DESCASC
19-04-2018 27.6 (15:30) 6.2 (08:00) 16.9 5.56 (19:40) 3.06 (19:40) 0 0 0 0 0
18-04-2018 28 (16:30) 4.5 (07:40) 16.3 9.72 (14:30) 4.72 (14:30) 0 0 0 0 0
17-04-2018 24.4 (17:00) 5.3 (04:50) 14.8 9.72 (12:30) 4.17 (16:30) 0 0 0 0 0
16-04-2018 19.5 (16:20) 2.8 (06:00) 11.1 8.06 (20:00) 4.17 (18:30) 0 0 0 0 0
15-04-2018 16.5 (15:00) 8.9 (00:00) 12.7 8.33 (15:30) 4.17 (13:10) 0.4 0 0.2 0 0.2
14-04-2018 18.7 (16:30) 6.6 (00:00) 12.7 8.89 (20:50) 4.17 (20:50) 0.2 0 0 0 0.2
13-04-2018 15 (16:30) 7.3 (00:00) 11.2 6.11 (16:00) 2.5 (16:00) 0.2 0 0 0.2 0
12-04-2018 15 (16:40) 5.7 (00:00) 10.3 6.39 (16:10) 3.33 (16:10) 1.4 0 1.2 0 0.2
11-04-2018 12.4 (16:50) 1.1 (00:00) 6.7 6.11 (16:50) 3.33 (16:50) 4.4 0 0.2 1 3.2
10-04-2018 11.5 (14:40) 3.4 (00:00) 7.5 9.17 (03:10) 3.89 (03:20) 6.6 3.2 1 1.6 0.8
09-04-2018 16.2 (15:30) 6.5 (00:00) 11.4 7.22 (16:40) 3.61 (16:40) 6.2 5.8 0.2 0.2 0
08-04-2018 15.9 (14:50) 7 (00:00) 11.4 8.61 (15:40) 4.17 (13:40) 2.4 0 0.2 0.8 1.4
07-04-2018 15.6 (15:40) 4.6 (00:00) 10.1 8.61 (14:50) 5 (14:50) 6.4 0.2 0 4.4 1.8
06-04-2018 15.1 (04:40) 6.6 (00:00) 10.9 12.22 (05:40) 5.83 (05:40) 14.8 0 1 7.2 6.6
05-04-2018 19.3 (17:40) 4.6 (00:00) 11.9 10.28 (16:00) 5 (16:00) 0 0 0 0 0
04-04-2018 15.4 (15:10) 6 (00:00) 10.7 11.11 (14:20) 5.83 (17:30) 9.6 4.2 2.6 2.4 0.4
03-04-2018 15.1 (16:00) 6 (00:00) 10.6 18.61 (16:30) 8.61 (16:30) 17.8 6 1.2 0 10.6
02-04-2018 17 (16:40) 11.9 (00:00) 14.4 13.61 (16:30) 6.94 (17:00) 1.8 0 1 0.4 0.4
01-04-2018 19.1 (16:20) 6.1 (00:00) 12.6 9.17 (17:30) 3.89 (16:00) 0.6 0.6 0 0 0
31-03-2018 14.2 (15:00) 4.6 (00:00) 9.4 8.61 (14:20) 4.17 (14:20) 1.8 0.6 0.8 0 0.4
30-03-2018 7.4 (15:50) 1.3 (00:00) 4.4 11.67 (18:50) 5 (15:00) 8.6 2 1 2.6 3
29-03-2018 10.5 (14:50) 1.6 (00:00) 6.1 11.39 (20:20) 5 (20:20) 11 0 0.2 4.6 6.2
28-03-2018 13 (13:00) 6.6 (00:00) 9.8 8.33 (11:20) 3.61 (13:50) 3.6 0 0 0.4 3.2
27-03-2018 20.9 (17:00) 7.9 (00:00) 14.4 6.11 (19:00) 3.06 (19:10) 0 0 0 0 0
26-03-2018 12.9 (18:40) 2.4 (00:00) 7.6 3.33 (20:10) 1.39 (20:20) 0 0 0 0 0
25-03-2018 13.7 (16:30) 4 (00:00) 8.8 8.33 (17:10) 4.44 (16:20) 1.8 0.8 0.4 0.6 0
24-03-2018 10.8 (14:20) 3.8 (00:00) 7.3 11.39 (11:40) 6.11 (15:20) 11 2.4 5.8 2 0.8
23-03-2018 13.4 (14:00) 3.7 (00:00) 8.5 15.28 (19:30) 7.22 (19:30) 9.4 2 0.2 0.4 6.8
22-03-2018 18 (16:20) -3.8 (-00:0) 7.1 7.5 (18:20) 3.61 (18:20) 0 0 0 0 0
21-03-2018 14.2 (14:50) -2.1 (-00:0) 6 8.89 (17:00) 4.44 (17:20) 0 0 0 0 0

Gráficas

Temp. máximas Temp. mínimas Temp. medias Precipitaciones Rachas de viento máximas Velocidades máximas media en intervalos de 10 minutos

Datos horarios

Fecha y hora oficial Temperatura (ºC) Velocidad del viento (km/h) Dirección del viento Racha (km/h) Dirección de racha Precipitación (mm) Presión (hPa) Tendencia (hPa) Humedad (%)
2018-04-19 23:00:00 16 0 Calma 8 Sudoeste 0 -- -- 71
2018-04-19 22:00:00 18.2 0 Calma 18 Norte 0 -- -- 69
2018-04-19 21:00:00 20.4 4 Norte 19 Nordeste 0 -- -- 60
2018-04-19 20:00:00 21.3 7 Noroeste 20 Noroeste 0 -- -- 65
2018-04-19 19:00:00 22.6 3 Oeste 17 Sudoeste 0 -- -- 56
2018-04-19 18:00:00 23.3 2 Sudoeste 12 Sudoeste 0 -- -- 62
2018-04-19 17:00:00 25.4 5 Sudoeste 12 Sudoeste 0 -- -- 51
2018-04-19 16:00:00 26.5 4 Sudoeste 12 Sudoeste 0 -- -- 41
2018-04-19 15:00:00 26.5 4 Noroeste 7 Norte 0 -- -- 42
2018-04-19 14:00:00 24.6 0 Calma 6 Sudoeste 0 -- -- 55
2018-04-19 13:00:00 22 3 Norte 5 Nordeste 0 -- -- 60
2018-04-19 12:00:00 18 2 Oeste 5 Sudoeste 0 -- -- 68
2018-04-19 11:00:00 14.3 0 Calma 5 Noroeste 0 -- -- 75
2018-04-19 10:00:00 9.7 0 Calma 3 Sudeste 0 -- -- 88
2018-04-19 09:00:00 6.5 0 Calma 2 Nordeste 0 -- -- 94
2018-04-19 08:00:00 6.2 0 Calma 2 Nordeste 0 -- -- 91
2018-04-19 07:00:00 6.7 0 Calma 4 Nordeste 0 -- -- 89
2018-04-19 06:00:00 7.4 0 Calma 2 Nordeste 0 -- -- 89
2018-04-19 05:00:00 8.3 0 Calma 2 Nordeste 0 -- -- 86
2018-04-19 04:00:00 9.2 0 Calma 3 Nordeste 0 -- -- 84
2018-04-19 03:00:00 10.6 0 Calma 4 Sudoeste 0 -- -- 82
2018-04-19 02:00:00 11.9 0 Calma 3 Norte 0 -- -- 79
2018-04-19 01:00:00 13.8 0 Calma 8 Noroeste 0 -- -- 74
2018-04-19 00:00:00 15.6 3 Norte 13 Noroeste 0 -- -- 67
2018-04-18 23:00:00 17.4 4 Noroeste 15 Noroeste 0 -- -- 64
2018-04-18 22:00:00 19.5 5 Noroeste 15 Noroeste 0 -- -- 59
2018-04-18 21:00:00 22.5 14 Noroeste 27 Noroeste 0 -- -- 51
2018-04-18 20:00:00 25.7 6 Sudoeste 22 Sur 0 -- -- 40
2018-04-18 19:00:00 26.5 6 Sur 24 Sur 0 -- -- 33
2018-04-18 18:00:00 26.9 7 Sur 26 Oeste 0 -- -- 32
2018-04-18 17:00:00 28 8 Sur 23 Sur 0 -- -- 29
2018-04-18 16:00:00 27.6 9 Sur 26 Sudoeste 0 -- -- 31
2018-04-18 15:00:00 26.4 12 Sudoeste 35 Sudoeste 0 -- -- 33
2018-04-18 14:00:00 25.5 10 Sur 28 Sur 0 -- -- 32
2018-04-18 13:00:00 21.4 3 Norte 6 Este 0 -- -- 59
2018-04-18 12:00:00 16.5 0 Calma 6 Nordeste 0 -- -- 72
2018-04-18 11:00:00 11.9 2 Noroeste 7 Nordeste 0 -- -- 93
2018-04-18 10:00:00 7.9 0 Calma 4 Noroeste 0 -- -- 97
2018-04-18 09:00:00 5.9 0 Calma 3 Sudeste 0 -- -- 98
2018-04-18 08:00:00 4.6 0 Calma 4 Norte 0 -- -- 94
2018-04-18 07:00:00 4.9 0 Calma 4 Noroeste 0 -- -- 91
2018-04-18 06:00:00 5.7 0 Calma 3 Noroeste 0 -- -- 90
2018-04-18 05:00:00 6.6 0 Calma 2 Norte 0 -- -- 90
2018-04-18 04:00:00 7.5 0 Calma 4 Noroeste 0 -- -- 88
2018-04-18 03:00:00 8.5 0 Calma 2 Nordeste 0 -- -- 86
2018-04-18 02:00:00 9.6 0 Calma 4 Noroeste 0 -- -- 85
2018-04-18 01:00:00 10.9 0 Calma 3 Norte 0 -- -- 83
2018-04-18 00:00:00 12.3 0 Calma 6 Noroeste 0 -- -- 80
2018-04-17 23:00:00 14.3 2 Nordeste 8 Norte 0 -- -- 74
2018-04-17 22:00:00 17.3 0 Calma 9 Sudoeste 0 -- -- 65
2018-04-17 21:00:00 19.8 3 Sudoeste 18 Oeste 0 -- -- 56
2018-04-17 20:00:00 21.5 8 Sudoeste 23 Sudoeste 0 -- -- 50
2018-04-17 19:00:00 22.9 5 Oeste 21 Sudoeste 0 -- -- 51
2018-04-17 18:00:00 23.4 10 Sudoeste 28 Sudoeste 0 -- -- 44
2018-04-17 17:00:00 24.4 4 Sur 31 Sudoeste 0 -- -- 44
2018-04-17 16:00:00 23.6 13 Sudoeste 26 Sudoeste 0 -- -- 41
2018-04-17 15:00:00 22.6 10 Sur 23 Sudeste 0 -- -- 43
2018-04-17 14:00:00 21 10 Sur 26 Sur 0 -- -- 48
2018-04-17 13:00:00 19.9 10 Sur 35 Sur 0 -- -- 51
2018-04-17 12:00:00 18.8 10 Sur 23 Sur 0 -- -- 53
2018-04-17 11:00:00 17.2 6 Sudeste 24 Sudeste 0 -- -- 57
2018-04-17 10:00:00 13.6 3 Sudeste 12 Este 0 -- -- 68
2018-04-17 09:00:00 8.2 2 Nordeste 6 Nordeste 0 -- -- 92
2018-04-17 08:00:00 7.4 0 Calma 7 Norte 0 -- -- 92
2018-04-17 07:00:00 6.7 0 Calma 5 Nordeste 0 -- -- 93
2018-04-17 06:00:00 5.7 0 Calma 5 Nordeste 0 -- -- 92
2018-04-17 05:00:00 5.4 2 Norte 4 Noroeste 0 -- -- 93
2018-04-17 04:00:00 5.6 0 Calma 4 Norte 0 -- -- 90
2018-04-17 03:00:00 5.8 0 Calma 5 Noroeste 0 -- -- 90
2018-04-17 02:00:00 6.4 0 Calma 5 Este 0 -- -- 87
2018-04-17 01:00:00 7.5 0 Calma 4 Este 0 -- -- 83
2018-04-17 00:00:00 9 0 Calma 4 Este 0 -- -- 79
2018-04-16 23:00:00 10.8 0 Calma 3 Norte 0 -- -- 75
2018-04-16 22:00:00 13 3 Sudoeste 7 Sudoeste 0 -- -- 69
2018-04-16 21:00:00 15.2 3 Oeste 23 Sudoeste 0 -- -- 58
2018-04-16 20:00:00 16.7 8 Oeste 29 Oeste 0 -- -- 51
2018-04-16 19:00:00 18.2 13 Sudoeste 28 Sudoeste 0 -- -- 45
2018-04-16 18:00:00 18.9 13 Sudoeste 27 Sudoeste 0 -- -- 42
2018-04-16 17:00:00 19.5 12 Sur 24 Sudoeste 0 -- -- 42
2018-04-16 16:00:00 19 6 Sudoeste 22 Sur 0 -- -- 49
2018-04-16 15:00:00 17.9 8 Sudoeste 23 Sudoeste 0 -- -- 50
2018-04-16 14:00:00 16.2 9 Sudoeste 24 Sudoeste 0 -- -- 51
2018-04-16 13:00:00 14.7 11 Sur 23 Sudoeste 0 -- -- 51
2018-04-16 12:00:00 13.3 5 Oeste 16 Sudoeste 0 -- -- 61
2018-04-16 11:00:00 9.9 2 Oeste 6 Noroeste 0 -- -- 82
2018-04-16 10:00:00 6 0 Calma 4 Nordeste 0 -- -- 92
2018-04-16 09:00:00 3.2 0 Calma 3 Noroeste 0 -- -- 96
2018-04-16 08:00:00 3 0 Calma 3 Noroeste 0 -- -- 94
2018-04-16 07:00:00 3.5 0 Calma 4 Este 0 -- -- 96
2018-04-16 06:00:00 2.8 0 Calma 2 Noroeste 0 -- -- 92
2018-04-16 05:00:00 3.8 0 Calma 3 Norte 0 -- -- 91
2018-04-16 04:00:00 4.7 0 Calma 3 Norte 0 -- -- 91
2018-04-16 03:00:00 5.6 2 Norte 4 Noroeste 0 -- -- 88
2018-04-16 02:00:00 7.2 0 Calma 4 Oeste 0 -- -- 88
2018-04-16 01:00:00 8.3 0 Calma 4 Oeste 0 -- -- 88
2018-04-16 00:00:00 8.9 0 Calma 5 Sudoeste 0 -- -- 87
2018-04-15 23:00:00 9.6 0 Calma 6 Sudoeste 0 -- -- 82
2018-04-15 22:00:00 10 3 Sudoeste 14 Sudoeste 0.2 -- -- 79
2018-04-15 21:00:00 11.3 2 Oeste 13 Sudoeste 0 -- -- 74
2018-04-15 20:00:00 11.7 7 Sudoeste 17 Oeste 0 -- -- 75
2018-04-15 19:00:00 13.5 4 Oeste 24 Oeste 0 -- -- 62
2018-04-15 18:00:00 13.9 8 Sudoeste 19 Sudoeste 0 -- -- 58
2018-04-15 17:00:00 14.4 4 Oeste 30 Noroeste 0 -- -- 61
2018-04-15 16:00:00 15.4 7 Oeste 30 Sudoeste 0 -- -- 56
2018-04-15 15:00:00 16.5 12 Sudoeste 27 Sudoeste 0 -- -- 54
2018-04-15 14:00:00 15.7 10 Oeste 27 Sudoeste 0 -- -- 51
2018-04-15 13:00:00 14.3 12 Sudoeste 27 Oeste 0 -- -- 55
2018-04-15 12:00:00 13.8 4 Oeste 30 Sudoeste 0 -- -- 72
2018-04-15 11:00:00 14 9 Sudoeste 18 Sudoeste 0 -- -- 69
2018-04-15 10:00:00 11.4 3 Sur 7 Sur 0 -- -- 90
2018-04-15 09:00:00 10.4 0 Calma 8 Sudoeste 0 -- -- 93
2018-04-15 08:00:00 10.2 5 Sudoeste 20 Sudoeste 0.2 -- -- 93
2018-04-15 07:00:00 10.7 6 Noroeste 14 Oeste 0 -- -- 89
2018-04-15 06:00:00 10.8 0 Calma 4 Noroeste 0 -- -- 87
2018-04-15 05:00:00 10.8 0 Calma 7 Noroeste 0 -- -- 87
2018-04-15 04:00:00 10.8 0 Calma 4 Norte 0 -- -- 85
2018-04-15 03:00:00 11 0 Calma 9 Sudoeste 0 -- -- 81
2018-04-15 02:00:00 11.4 4 Oeste 20 Sudoeste 0 -- -- 76
2018-04-15 01:00:00 12.2 0 Calma 19 Sur 0 -- -- 74
2018-04-15 00:00:00 12.5 6 Sudoeste 21 Sur 0 -- -- 67
2018-04-14 23:00:00 12.5 8 Sur 22 Sur 0 -- -- 68
2018-04-14 22:00:00 12.8 3 Sudoeste 24 Sudoeste 0.2 -- -- 75
2018-04-14 21:00:00 13.9 13 Sudoeste 32 Sudoeste 0 -- -- 68
2018-04-14 20:00:00 15.9 7 Oeste 27 Sudoeste 0 -- -- 59
2018-04-14 19:00:00 17.4 8 Oeste 30 Sudoeste 0 -- -- 56
2018-04-14 18:00:00 18.1 8 Sudoeste 22 Sudoeste 0 -- -- 54
2018-04-14 17:00:00 18.3 9 Sudoeste 24 Sudoeste 0 -- -- 52
2018-04-14 16:00:00 18 12 Sudoeste 29 Sudoeste 0 -- -- 51
2018-04-14 15:00:00 17.7 12 Sudoeste 25 Sudoeste 0 -- -- 55
2018-04-14 14:00:00 16.3 7 Oeste 21 Sudoeste 0 -- -- 68
2018-04-14 13:00:00 14.7 6 Sudoeste 18 Sudoeste 0 -- -- 65
2018-04-14 12:00:00 13.8 4 Sur 9 Sudoeste 0 -- -- 69
2018-04-14 11:00:00 10.5 3 Norte 6 Noroeste 0 -- -- 89
2018-04-14 10:00:00 9 0 Calma 4 Nordeste 0 -- -- 94
2018-04-14 09:00:00 8.1 0 Calma 4 Norte 0 -- -- 94
2018-04-14 08:00:00 7.9 0 Calma 3 Norte 0 -- -- 94
2018-04-14 07:00:00 7.7 0 Calma 3 Norte 0 -- -- 94
2018-04-14 06:00:00 7.4 0 Calma 2 Norte 0 -- -- 94
2018-04-14 05:00:00 7.5 0 Calma 4 Norte 0 -- -- 93
2018-04-14 04:00:00 7.4 2 Norte 5 Norte 0 -- -- 93
2018-04-14 03:00:00 7.2 0 Calma 2 Noroeste 0 -- -- 95
2018-04-14 02:00:00 6.6 0 Calma 3 Norte 0 -- -- 90
2018-04-14 01:00:00 7.9 0 Calma 6 Noroeste 0 -- -- 86
2018-04-14 00:00:00 9.2 0 Calma 9 Norte 0 -- -- 86
2018-04-13 23:00:00 9.9 3 Norte 10 Nordeste 0 -- -- 83
2018-04-13 22:00:00 10.9 4 Norte 16 Noroeste 0 -- -- 80
2018-04-13 21:00:00 11.9 6 Norte 17 Norte 0 -- -- 78
2018-04-13 20:00:00 12.9 3 Norte 19 Norte 0 -- -- 76
2018-04-13 19:00:00 13.2 5 Norte 18 Norte 0 -- -- 74
2018-04-13 18:00:00 14 7 Norte 15 Noroeste 0 -- -- 70
2018-04-13 17:00:00 14.2 3 Norte 16 Norte 0 -- -- 70
2018-04-13 16:00:00 14.5 9 Norte 22 Noroeste 0 -- -- 74
2018-04-13 15:00:00 12.8 4 Sudoeste 9 Sudoeste 0.2 -- -- 81
2018-04-13 14:00:00 11.9 0 Calma 5 Sur 0 -- -- 83
2018-04-13 13:00:00 11.6 0 Calma 5 Oeste 0 -- -- 81
2018-04-13 12:00:00 10.5 0 Calma 4 Oeste 0 -- -- 85
2018-04-13 11:00:00 9.5 0 Calma 3 Sur 0 -- -- 86
2018-04-13 10:00:00 8.6 0 Calma 3 Sudeste 0 -- -- 92
2018-04-13 09:00:00 7.8 0 Calma 3 Sudoeste 0 -- -- 94
2018-04-13 08:00:00 7.5 0 Calma 2 Sudoeste 0 -- -- 94
2018-04-13 07:00:00 7.4 0 Calma 2 Sudoeste 0 -- -- 94
2018-04-13 06:00:00 7.4 0 Calma 4 Sudoeste 0 -- -- 92
2018-04-13 05:00:00 7.4 0 Calma 3 Nordeste 0 -- -- 93
2018-04-13 04:00:00 7.4 0 Calma 3 Nordeste 0 -- -- 93
2018-04-13 03:00:00 7.7 0 Calma 3 Nordeste 0 -- -- 93
2018-04-13 02:00:00 8.1 0 Calma 4 Nordeste 0 -- -- 90
2018-04-13 01:00:00 8.8 0 Calma 4 Nordeste 0 -- -- 88
2018-04-13 00:00:00 9.5 0 Calma 4 Sudeste 0 -- -- 87
2018-04-12 23:00:00 10 0 Calma 3 Nordeste 0 -- -- 84
2018-04-12 22:00:00 10.6 0 Calma 5 Este 0 -- -- 82
2018-04-12 21:00:00 11.4 2 Este 7 Sur 0.2 -- -- 77
2018-04-12 20:00:00 12.1 5 Sudoeste 20 Sudeste 0 -- -- 67
2018-04-12 19:00:00 13.8 6 Sudeste 20 Sudeste 0 -- -- 60
2018-04-12 18:00:00 14.7 5 Sudeste 22 Este 0 -- -- 66
2018-04-12 17:00:00 14.5 9 Este 23 Sudeste 0 -- -- 65
2018-04-12 16:00:00 14.7 8 Sudeste 21 Este 0 -- -- 67
2018-04-12 15:00:00 13.3 4 Sur 16 Este 0 -- -- 72
2018-04-12 14:00:00 13.2 4 Este 14 Este 0 -- -- 75
2018-04-12 13:00:00 12.1 4 Sudeste 12 Sudeste 0 -- -- 80
2018-04-12 12:00:00 10.6 0 Calma 4 Norte 0 -- -- 90
2018-04-12 11:00:00 9.1 0 Calma 3 Norte 0.2 -- -- 96
2018-04-12 10:00:00 8 0 Calma 4 Norte 0.6 -- -- 98
2018-04-12 09:00:00 7 0 Calma 3 Norte 0.4 -- -- 98
2018-04-12 08:00:00 6.6 0 Calma 2 Norte 0 -- -- 97
2018-04-12 07:00:00 6.5 0 Calma 2 Norte 0 -- -- 97
2018-04-12 06:00:00 6.2 0 Calma 2 Norte 0 -- -- 97
2018-04-12 05:00:00 6 0 Calma 2 Norte 0 -- -- 97
2018-04-12 04:00:00 5.7 0 Calma 4 Noroeste 0 -- -- 96
2018-04-12 03:00:00 6 0 Calma 4 Norte 0 -- -- 95
2018-04-12 02:00:00 6.3 0 Calma 5 Noroeste 0 -- -- 96
2018-04-12 01:00:00 6.5 0 Calma 3 Nordeste 0 -- -- 92
2018-04-12 00:00:00 7.9 0 Calma 3 Nordeste 0 -- -- 92
2018-04-11 23:00:00 8.7 0 Calma 2 Nordeste 0 -- -- 92
2018-04-11 22:00:00 9.1 2 Nordeste 5 Nordeste 0.6 -- -- 93
2018-04-11 21:00:00 9.8 2 Noroeste 8 Sudeste 1.8 -- -- 87
2018-04-11 20:00:00 10.7 3 Sudeste 7 Sudeste 0.6 -- -- 84
2018-04-11 19:00:00 11.5 3 Oeste 19 Noroeste 0.2 -- -- 78
2018-04-11 18:00:00 11.6 0 Calma 19 Sudoeste 0.4 -- -- 85
2018-04-11 17:00:00 11.8 8 Sudoeste 22 Sudoeste 0.4 -- -- 80
2018-04-11 16:00:00 11 5 Oeste 20 Sudoeste 0 -- -- 82
2018-04-11 15:00:00 10 9 Sudoeste 18 Sudoeste 0 -- -- 81
2018-04-11 14:00:00 9.3 8 Sur 14 Sur 0 -- -- 83
2018-04-11 13:00:00 8.1 6 Sudoeste 15 Oeste 0.2 -- -- 87
2018-04-11 12:00:00 8.3 3 Sudoeste 7 Sudoeste 0.2 -- -- 81
2018-04-11 11:00:00 6.2 3 Sudoeste 8 Sudoeste 0 -- -- 90
2018-04-11 10:00:00 3.9 2 Sudoeste 5 Sudoeste 0 -- -- 97
2018-04-11 09:00:00 2.3 0 Calma 2 Noroeste 0 -- -- 98
2018-04-11 08:00:00 1.7 0 Calma 3 Noroeste 0 -- -- 97
2018-04-11 07:00:00 1.5 0 Calma 3 Noroeste 0 -- -- 97
2018-04-11 06:00:00 1.4 0 Calma 3 Noroeste 0 -- -- 97
2018-04-11 05:00:00 1.2 2 Noroeste 4 Oeste 0 -- -- 95
2018-04-11 04:00:00 1.8 0 Calma 3 Oeste 0 -- -- 94
2018-04-11 03:00:00 2.7 0 Calma 6 Oeste 0 -- -- 96
2018-04-11 02:00:00 2.5 0 Calma 3 Oeste 0 -- -- 96
2018-04-11 01:00:00 2.2 0 Calma 3 Oeste 0 -- -- 92
2018-04-11 00:00:00 3.4 0 Calma 5 Oeste 0 -- -- 91
2018-04-10 23:00:00 4.6 0 Calma 6 Noroeste 0 -- -- 91
2018-04-10 22:00:00 5.8 0 Calma 5 Oeste 0 -- -- 89
2018-04-10 21:00:00 6.3 0 Calma 10 Noroeste 0 -- -- 90
2018-04-10 20:00:00 7.1 5 Noroeste 12 Norte 0.4 -- -- 87
2018-04-10 19:00:00 7.6 3 Norte 9 Norte 0.4 -- -- 89
2018-04-10 18:00:00 8.2 3 Este 9 Este 0 -- -- 84
2018-04-10 17:00:00 7.7 2 Sur 22 Sudoeste 1.2 -- -- 90
2018-04-10 16:00:00 8 12 Sudoeste 25 Sur 0.2 -- -- 80
2018-04-10 15:00:00 11.5 7 Sudoeste 19 Oeste 0 -- -- 67
2018-04-10 14:00:00 9.7 4 Sur 14 Norte 0 -- -- 68
2018-04-10 13:00:00 8.6 3 Oeste 21 Sudoeste 0.2 -- -- 84
2018-04-10 12:00:00 7 14 Sudoeste 24 Sudoeste 0.4 -- -- 86
2018-04-10 11:00:00 7.7 8 Sudoeste 19 Sudoeste 0 -- -- 81
2018-04-10 10:00:00 7.4 9 Sudoeste 16 Sudoeste 0 -- -- 85
2018-04-10 09:00:00 6.1 4 Sudoeste 9 Sudoeste 0 -- -- 92
2018-04-10 08:00:00 6 0 Calma 4 Norte 0 -- -- 93
2018-04-10 07:00:00 6.6 0 Calma 18 Sudoeste 0.6 -- -- 92
2018-04-10 06:00:00 6.7 6 Sudoeste 23 Oeste 1.8 -- -- 91
2018-04-10 05:00:00 7.3 12 Sudoeste 21 Sudoeste 0.8 -- -- 86
2018-04-10 04:00:00 7.6 9 Sudoeste 33 Sudoeste 0.4 -- -- 89
2018-04-10 03:00:00 8.5 12 Sudoeste 27 Sudoeste 0.2 -- -- 86
2018-04-10 02:00:00 9.2 12 Sudoeste 23 Sur 0 -- -- 84
2018-04-10 01:00:00 9.4 4 Sudoeste 15 Sur 0 -- -- 85
2018-04-10 00:00:00 9.5 6 Sudoeste 21 Sudoeste 0 -- -- 87
2018-04-09 23:00:00 9.8 9 Sudoeste 18 Sudoeste 0 -- -- 85
2018-04-09 22:00:00 10.2 4 Sudoeste 8 Sur 0 -- -- 79
2018-04-09 21:00:00 11.3 0 Calma 10 Noroeste 0 -- -- 74
2018-04-09 20:00:00 12.5 6 Norte 21 Noroeste 0 -- -- 64
2018-04-09 19:00:00 13.5 7 Norte 25 Norte 0 -- -- 64
2018-04-09 18:00:00 15 8 Noroeste 21 Noroeste 0 -- -- 61
2018-04-09 17:00:00 14.6 9 Noroeste 26 Noroeste 0.2 -- -- 67
2018-04-09 16:00:00 15.7 10 Noroeste 25 Noroeste 0 -- -- 59
2018-04-09 15:00:00 14.1 9 Norte 22 Norte 0 -- -- 67
2018-04-09 14:00:00 12.7 5 Norte 21 Norte 0 -- -- 72
2018-04-09 13:00:00 10.9 9 Norte 18 Noroeste 0 -- -- 81
2018-04-09 12:00:00 10 4 Norte 18 Norte 0 -- -- 88
2018-04-09 11:00:00 9 3 Sudoeste 7 Sur 0 -- -- 94
2018-04-09 10:00:00 7.8 0 Calma 6 Sur 0 -- -- 95
2018-04-09 09:00:00 7.2 0 Calma 5 Sudoeste 0 -- -- 96
2018-04-09 08:00:00 6.9 0 Calma 4 Sudoeste 0 -- -- 95
2018-04-09 07:00:00 6.8 0 Calma 4 Sudoeste 0.2 -- -- 95
2018-04-09 06:00:00 6.7 0 Calma 6 Sudoeste 0 -- -- 95
2018-04-09 05:00:00 6.6 3 Sudoeste 10 Sudoeste 0.2 -- -- 95
2018-04-09 04:00:00 6.6 5 Sudoeste 13 Sur 1.4 -- -- 95
2018-04-09 03:00:00 6.6 4 Sudoeste 11 Sudoeste 1.8 -- -- 96
2018-04-09 02:00:00 6.8 5 Sudoeste 10 Oeste 1.4 -- -- 96
2018-04-09 01:00:00 7.1 3 Sudoeste 8 Sudoeste 1 -- -- 94
2018-04-09 00:00:00 7.9 0 Calma 3 Nordeste 0.8 -- -- 92
2018-04-08 23:00:00 8.3 0 Calma 4 Nordeste 0.4 -- -- 89
2018-04-08 22:00:00 8.7 0 Calma 8 Noroeste 0 -- -- 86
2018-04-08 21:00:00 9.2 3 Oeste 23 Sudoeste 0.2 -- -- 84
2018-04-08 20:00:00 9.8 10 Sudoeste 29 Sudoeste 0 -- -- 77
2018-04-08 19:00:00 11.2 8 Oeste 31 Sudoeste 0 -- -- 76
2018-04-08 18:00:00 13.5 5 Oeste 22 Sudoeste 0 -- -- 69
2018-04-08 17:00:00 12.2 5 Sudoeste 25 Sur 0.6 -- -- 81
2018-04-08 16:00:00 13.3 13 Sudoeste 31 Sudoeste 0 -- -- 71
2018-04-08 15:00:00 15.3 9 Sudoeste 25 Sudoeste 0 -- -- 67
2018-04-08 14:00:00 13 14 Sudoeste 31 Sudoeste 0 -- -- 76
2018-04-08 13:00:00 11.5 11 Sudoeste 23 Sudoeste 0.2 -- -- 86
2018-04-08 12:00:00 11.9 8 Sudoeste 19 Sudoeste 0 -- -- 79
2018-04-08 11:00:00 10.4 3 Sudoeste 9 Sudoeste 0 -- -- 93
2018-04-08 10:00:00 8.2 0 Calma 6 Sudoeste 0.2 -- -- 97
2018-04-08 09:00:00 7.7 0 Calma 2 Este 0 -- -- 97
2018-04-08 08:00:00 7.4 0 Calma 4 Este 0 -- -- 97
2018-04-08 07:00:00 7.3 0 Calma 4 Este 0 -- -- 96
2018-04-08 06:00:00 7.3 0 Calma 0 Calma 0 -- -- 97
2018-04-08 05:00:00 7.2 0 Calma 4 Este 0 -- -- 96
2018-04-08 04:00:00 7.3 0 Calma 3 Este 0 -- -- 96
2018-04-08 03:00:00 7.3 0 Calma 2 Este 0 -- -- 96
2018-04-08 02:00:00 7.2 0 Calma 3 Este 0 -- -- 97
2018-04-08 01:00:00 7 0 Calma 4 Este 0 -- -- 95
2018-04-08 00:00:00 7.5 0 Calma 4 Este 0 -- -- 92
2018-04-07 23:00:00 8.2 0 Calma 2 Oeste 0 -- -- 94
2018-04-07 22:00:00 8.8 0 Calma 3 Oeste 0 -- -- 91
2018-04-07 21:00:00 9.7 0 Calma 8 Sudoeste 0 -- -- 91
2018-04-07 20:00:00 10 0 Calma 5 Sudeste 0 -- -- 88
2018-04-07 19:00:00 9.3 0 Calma 21 Sur 1.8 -- -- 90
2018-04-07 18:00:00 11.1 3 Sur 25 Sudoeste 3.4 -- -- 85
2018-04-07 17:00:00 12.4 0 Calma 22 Oeste 1 -- -- 80
2018-04-07 16:00:00 14.8 10 Sur 18 Sudeste 0 -- -- 57
2018-04-07 15:00:00 13.7 9 Sudoeste 31 Sudoeste 0 -- -- 69
2018-04-07 14:00:00 14.9 8 Sudeste 27 Sur 0 -- -- 57
2018-04-07 13:00:00 13.2 12 Sur 29 Sur 0 -- -- 61
2018-04-07 12:00:00 11.1 13 Sur 26 Sur 0 -- -- 71
2018-04-07 11:00:00 8.4 0 Calma 10 Nordeste 0 -- -- 96
2018-04-07 10:00:00 7.3 0 Calma 5 Este 0 -- -- 98
2018-04-07 09:00:00 6.4 0 Calma 4 Este 0 -- -- 98
2018-04-07 08:00:00 5.9 2 Norte 6 Norte 0 -- -- 98
2018-04-07 07:00:00 5.6 0 Calma 4 Nordeste 0 -- -- 98
2018-04-07 06:00:00 5.1 0 Calma 5 Norte 0 -- -- 98
2018-04-07 05:00:00 4.8 0 Calma 8 Este 0 -- -- 97
2018-04-07 04:00:00 4.7 2 Sudoeste 11 Sudoeste 0 -- -- 97
2018-04-07 03:00:00 4.9 0 Calma 4 Sudoeste 0 -- -- 95
2018-04-07 02:00:00 5.6 0 Calma 4 Sudoeste 0 -- -- 95
2018-04-07 01:00:00 5.9 0 Calma 4 Sudoeste 0.2 -- -- 94
2018-04-07 00:00:00 6.6 0 Calma 4 Sudoeste 0 -- -- 93
2018-04-06 23:00:00 7.6 0 Calma 5 Sudoeste 0 -- -- 93
2018-04-06 22:00:00 8 0 Calma 4 Sur 0.8 -- -- 93
2018-04-06 21:00:00 8.2 3 Sur 16 Sudoeste 2 -- -- 91
2018-04-06 20:00:00 8.7 9 Sudoeste 25 Sudoeste 1.4 -- -- 88
2018-04-06 19:00:00 10.7 4 Noroeste 9 Noroeste 2.4 -- -- 90
2018-04-06 18:00:00 11.2 0 Calma 4 Sudeste 3.4 -- -- 89
2018-04-06 17:00:00 11.6 0 Calma 8 Sudoeste 1.6 -- -- 89
2018-04-06 16:00:00 11.9 3 Oeste 29 Sudoeste 1.8 -- -- 85
2018-04-06 15:00:00 13.6 15 Sudoeste 42 Sudoeste 0.2 -- -- 71
2018-04-06 14:00:00 13.8 3 Sudoeste 15 Sudoeste 0.2 -- -- 67
2018-04-06 13:00:00 13.5 4 Sur 23 Sudeste 0 -- -- 66
2018-04-06 12:00:00 11.9 9 Sur 22 Sur 0.4 -- -- 71
2018-04-06 11:00:00 11.4 3 Oeste 20 Sudoeste 0.6 -- -- 81
2018-04-06 10:00:00 13.9 10 Sudoeste 27 Sur 0 -- -- 54
2018-04-06 09:00:00 14.2 14 Sur 44 Sur 0 -- -- 49
2018-04-06 08:00:00 12.3 3 Sudoeste 19 Sudoeste 0 -- -- 68
2018-04-06 07:00:00 14.4 12 Sudoeste 41 Sudoeste 0 -- -- 58
2018-04-06 06:00:00 15 15 Sur 44 Sur 0 -- -- 55
2018-04-06 05:00:00 15 13 Sur 37 Sudoeste 0 -- -- 57
2018-04-06 04:00:00 14.8 18 Sur 37 Sur 0 -- -- 57
2018-04-06 03:00:00 9 5 Norte 21 Sudoeste 0 -- -- 82
2018-04-06 02:00:00 9.7 3 Norte 9 Sudoeste 0 -- -- 79
2018-04-06 01:00:00 11.8 3 Noroeste 15 Sudoeste 0 -- -- 77
2018-04-06 00:00:00 12.4 5 Oeste 17 Sudoeste 0 -- -- 71
2018-04-05 23:00:00 11.3 0 Calma 10 Este 0 -- -- 66
2018-04-05 22:00:00 13.5 2 Sudeste 13 Sur 0 -- -- 61
2018-04-05 21:00:00 16.3 6 Sudeste 23 Sudeste 0 -- -- 50
2018-04-05 20:00:00 17.9 5 Sur 24 Sudeste 0 -- -- 43
2018-04-05 19:00:00 18.8 9 Sur 27 Sur 0 -- -- 38
2018-04-05 18:00:00 19.1 13 Sur 31 Sur 0 -- -- 36
2018-04-05 17:00:00 17.7 12 Sudoeste 31 Sudoeste 0 -- -- 40
2018-04-05 16:00:00 18.2 18 Sudoeste 37 Sudoeste 0 -- -- 37
2018-04-05 15:00:00 18.2 13 Sudoeste 36 Sur 0 -- -- 40
2018-04-05 14:00:00 16.4 13 Sudoeste 27 Sudoeste 0 -- -- 42
2018-04-05 13:00:00 15.1 3 Sudoeste 7 Sudoeste 0 -- -- 67
2018-04-05 12:00:00 12 0 Calma 6 Sudoeste 0 -- -- 77
2018-04-05 11:00:00 8.4 0 Calma 6 Oeste 0 -- -- 96
2018-04-05 10:00:00 5.3 2 Oeste 4 Oeste 0 -- -- 98
2018-04-05 09:00:00 4.6 0 Calma 4 Oeste 0 -- -- 97
2018-04-05 08:00:00 4.8 0 Calma 3 Oeste 0 -- -- 98
2018-04-05 07:00:00 4.8 0 Calma 3 Oeste 0 -- -- 97
2018-04-05 06:00:00 5 0 Calma 3 Oeste 0 -- -- 97
2018-04-05 05:00:00 5.3 0 Calma 4 Oeste 0 -- -- 96
2018-04-05 04:00:00 5.3 0 Calma 3 Oeste 0 -- -- 96
2018-04-05 03:00:00 5.8 0 Calma 4 Oeste 0 -- -- 94
2018-04-05 02:00:00 6 0 Calma 4 Oeste 0 -- -- 95
2018-04-05 01:00:00 6.8 0 Calma 4 Sudoeste 0 -- -- 93
2018-04-05 00:00:00 7.5 0 Calma 5 Sudoeste 0 -- -- 94
2018-04-04 23:00:00 7.8 0 Calma 5 Sudoeste 0 -- -- 90
2018-04-04 22:00:00 9.2 0 Calma 4 Sudoeste 0 -- -- 89
2018-04-04 21:00:00 10.4 2 Sudoeste 21 Oeste 0 -- -- 88
2018-04-04 20:00:00 11.3 12 Sudoeste 22 Sudoeste 0.4 -- -- 87
2018-04-04 19:00:00 12.4 10 Oeste 28 Sudoeste 0 -- -- 80
2018-04-04 18:00:00 12.9 14 Sudoeste 35 Sudoeste 0 -- -- 77
2018-04-04 17:00:00 13.3 10 Sudoeste 36 Sudoeste 0.2 -- -- 77
2018-04-04 16:00:00 13.3 9 Sudoeste 33 Sudoeste 0 -- -- 79
2018-04-04 15:00:00 15.3 19 Sudoeste 40 Sudoeste 0 -- -- 67
2018-04-04 14:00:00 14 14 Sudoeste 36 Sudoeste 0 -- -- 76
2018-04-04 13:00:00 11.1 4 Oeste 18 Oeste 2.2 -- -- 93
2018-04-04 12:00:00 11.4 13 Sudoeste 26 Sudoeste 0 -- -- 86
2018-04-04 11:00:00 10.5 11 Sudoeste 25 Sudoeste 0 -- -- 90
2018-04-04 10:00:00 9.5 4 Sur 14 Sudoeste 0.4 -- -- 93
2018-04-04 09:00:00 9.2 4 Sudoeste 14 Sudoeste 0.8 -- -- 93
2018-04-04 08:00:00 9.2 7 Sudoeste 20 Sur 0.8 -- -- 91
2018-04-04 07:00:00 9 6 Sudoeste 18 Sudoeste 0.6 -- -- 91
2018-04-04 06:00:00 8.7 2 Sur 13 Sudoeste 0.8 -- -- 94
2018-04-04 05:00:00 8.8 7 Sudoeste 25 Oeste 0.8 -- -- 93
2018-04-04 04:00:00 7.1 0 Calma 4 Norte 1.8 -- -- 97
2018-04-04 03:00:00 6.8 2 Sur 8 Sudeste 0.6 -- -- 97
2018-04-04 02:00:00 6.2 0 Calma 4 Nordeste 0.2 -- -- 96
2018-04-04 01:00:00 6.1 0 Calma 8 Sudeste 0 -- -- 95
2018-04-04 00:00:00 6 2 Sur 38 Oeste 5.6 -- -- 94
2018-04-03 23:00:00 7.9 2 Norte 10 Sudoeste 0.2 -- -- 93
2018-04-03 22:00:00 7.8 3 Sudeste 10 Sur 0 -- -- 92
2018-04-03 21:00:00 7.7 2 Este 15 Sur 1.2 -- -- 93
2018-04-03 20:00:00 7.8 11 Sudoeste 40 Sudoeste 2 -- -- 88
2018-04-03 19:00:00 9.5 12 Sur 58 Sudoeste 1.6 -- -- 82
2018-04-03 18:00:00 12.8 25 Sudoeste 55 Sur 0 -- -- 62
2018-04-03 17:00:00 13.5 25 Sudoeste 67 Sudoeste 0 -- -- 59
2018-04-03 16:00:00 15.1 21 Sudoeste 55 Sur 0 -- -- 54
2018-04-03 15:00:00 13.2 16 Sur 40 Sur 0 -- -- 67
2018-04-03 14:00:00 13.6 18 Sur 37 Sur 0 -- -- 64
2018-04-03 13:00:00 12 18 Sudoeste 39 Sudoeste 0 -- -- 71
2018-04-03 12:00:00 10.8 6 Sudoeste 19 Sudoeste 0.2 -- -- 79
2018-04-03 11:00:00 10.1 10 Sur 24 Sudeste 0 -- -- 79
2018-04-03 10:00:00 8.9 10 Sur 27 Sudoeste 0.2 -- -- 86
2018-04-03 09:00:00 8.4 2 Sur 7 Sudeste 0.2 -- -- 92
2018-04-03 08:00:00 8.1 0 Calma 8 Norte 0.2 -- -- 94
2018-04-03 07:00:00 8.1 0 Calma 8 Sur 0.4 -- -- 93
2018-04-03 06:00:00 8.3 5 Sur 38 Oeste 3.8 -- -- 89
2018-04-03 05:00:00 10 7 Sur 21 Sudoeste 1.6 -- -- 89
2018-04-03 04:00:00 10.8 5 Sur 31 Sur 0.6 -- -- 83
2018-04-03 03:00:00 12.1 12 Sur 30 Sur 0 -- -- 73
2018-04-03 02:00:00 12.2 9 Sur 22 Sur 0 -- -- 72
2018-04-03 01:00:00 12.1 8 Sudoeste 19 Sudoeste 0 -- -- 74
2018-04-03 00:00:00 12 6 Sur 15 Sur 0 -- -- 78
2018-04-02 23:00:00 12 5 Sur 20 Sudoeste 0 -- -- 78
2018-04-02 22:00:00 12 4 Sur 17 Sudoeste 0.2 -- -- 82
2018-04-02 21:00:00 12.6 9 Sudoeste 32 Sur 0.2 -- -- 80
2018-04-02 20:00:00 14.1 9 Sudoeste 33 Sur 0 -- -- 68
2018-04-02 19:00:00 15.5 13 Sudoeste 45 Sudoeste 0 -- -- 58
2018-04-02 18:00:00 15.7 17 Sudoeste 39 Sudoeste 0 -- -- 57
2018-04-02 17:00:00 17 25 Sudoeste 49 Sudoeste 0 -- -- 54
2018-04-02 16:00:00 14.7 14 Sudoeste 35 Sudoeste 0.2 -- -- 71
2018-04-02 15:00:00 14.7 11 Sudoeste 34 Sur 0.2 -- -- 72
2018-04-02 14:00:00 14.3 16 Sur 42 Sudoeste 0 -- -- 69
2018-04-02 13:00:00 13.4 13 Sur 42 Sur 0 -- -- 72
2018-04-02 12:00:00 13.7 12 Sur 42 Sudoeste 0.4 -- -- 64
2018-04-02 11:00:00 12.5 7 Sudoeste 20 Sudoeste 0.4 -- -- 76
2018-04-02 10:00:00 12.8 7 Sudoeste 23 Sur 0.2 -- -- 72
2018-04-02 09:00:00 13.2 4 Sudoeste 27 Sur 0 -- -- 68
2018-04-02 08:00:00 13.8 12 Sur 32 Sur 0 -- -- 59
2018-04-02 07:00:00 13.7 10 Sur 29 Sur 0 -- -- 57
2018-04-02 06:00:00 13.8 9 Sur 39 Sudoeste 0 -- -- 58
2018-04-02 05:00:00 14.1 12 Sur 27 Sur 0 -- -- 62
2018-04-02 04:00:00 13.7 9 Sudoeste 21 Sudoeste 0 -- -- 65
2018-04-02 03:00:00 12.3 5 Sudoeste 11 Sudoeste 0 -- -- 73
2018-04-02 02:00:00 12.6 0 Calma 15 Sudoeste 0 -- -- 73
2018-04-02 01:00:00 13.2 4 Sur 14 Sudoeste 0 -- -- 70
2018-04-02 00:00:00 13.4 0 Calma 9 Sudoeste 0 -- -- 72
2018-04-01 23:00:00 14.4 0 Calma 10 Oeste 0 -- -- 68
2018-04-01 22:00:00 16.5 7 Sudoeste 24 Sur 0 -- -- 57
2018-04-01 21:00:00 16.6 6 Sudeste 22 Sur 0 -- -- 55
2018-04-01 20:00:00 17.3 4 Sur 18 Sudeste 0 -- -- 54
2018-04-01 19:00:00 17.8 9 Sur 30 Sur 0 -- -- 51
2018-04-01 18:00:00 17.8 9 Sur 33 Sudoeste 0 -- -- 50
2018-04-01 17:00:00 17.9 11 Sur 29 Sudoeste 0 -- -- 51
2018-04-01 16:00:00 18.4 14 Sur 33 Sur 0 -- -- 49
2018-04-01 15:00:00 16.7 6 Sudeste 24 Sur 0 -- -- 59
2018-04-01 14:00:00 13.6 4 Norte 10 Noroeste 0 -- -- 66
2018-04-01 13:00:00 13.1 5 Noroeste 13 Sudeste 0 -- -- 77
2018-04-01 12:00:00 10.1 2 Norte 5 Noroeste 0 -- -- 89
2018-04-01 11:00:00 7.8 0 Calma 4 Noroeste 0 -- -- 94
2018-04-01 10:00:00 6.9 0 Calma 2 Norte 0 -- -- 95
2018-04-01 09:00:00 6.2 0 Calma 3 Noroeste 0 -- -- 95
2018-04-01 08:00:00 6.3 0 Calma 0 Calma 0 -- -- 93
2018-04-01 07:00:00 6.9 0 Calma 4 Norte 0 -- -- 91
2018-04-01 06:00:00 7.3 0 Calma 2 Noroeste 0 -- -- 92
2018-04-01 05:00:00 7.3 0 Calma 4 Noroeste 0 -- -- 93
2018-04-01 04:00:00 7.3 0 Calma 4 Sudeste 0.2 -- -- 91
2018-04-01 03:00:00 7.5 0 Calma 3 Sudeste 0 -- -- 92
2018-04-01 02:00:00 7.7 0 Calma 4 Nordeste 0 -- -- 90
2018-04-01 01:00:00 8.1 0 Calma 5 Este 0.4 -- -- 88
2018-04-01 00:00:00 8.3 3 Este 6 Este 0.2 -- -- 88
2018-03-31 23:00:00 8.7 0 Calma 8 Sudoeste 0.2 -- -- 78
2018-03-31 22:00:00 9.5 2 Oeste 14 Sudoeste 0 -- -- 75
2018-03-31 21:00:00 10.3 0 Calma 20 Sudoeste 0 -- -- 66
2018-03-31 20:00:00 11.1 4 Oeste 25 Sudoeste 0 -- -- 59
2018-03-31 19:00:00 12.1 9 Oeste 25 Sudoeste 0 -- -- 56
2018-03-31 18:00:00 12.6 7 Oeste 28 Sudoeste 0 -- -- 54
2018-03-31 17:00:00 13.1 12 Sudoeste 25 Sudoeste 0 -- -- 53
2018-03-31 16:00:00 14 9 Sudoeste 29 Sudoeste 0 -- -- 55
2018-03-31 15:00:00 14.2 9 Sudoeste 31 Sudoeste 0 -- -- 58
2018-03-31 14:00:00 12.4 8 Oeste 29 Sudoeste 0 -- -- 60
2018-03-31 13:00:00 10.3 10 Sudoeste 19 Sudoeste 0 -- -- 69
2018-03-31 12:00:00 8.9 10 Sudoeste 21 Sudoeste 0 -- -- 75
2018-03-31 11:00:00 8.2 2 Sudoeste 7 Oeste 0 -- -- 81
2018-03-31 10:00:00 5.5 0 Calma 3 Sudoeste 0 -- -- 95
2018-03-31 09:00:00 4.6 0 Calma 5 Oeste 0 -- -- 96
2018-03-31 08:00:00 4.9 0 Calma 5 Oeste 0.8 -- -- 95
2018-03-31 07:00:00 5 0 Calma 9 Oeste 0 -- -- 93
2018-03-31 06:00:00 5.2 4 Sudoeste 11 Sudoeste 0 -- -- 93
2018-03-31 05:00:00 5.5 3 Sudoeste 11 Sudoeste 0.6 -- -- 93
2018-03-31 04:00:00 5.5 6 Sudoeste 12 Sudoeste 0 -- -- 92
2018-03-31 03:00:00 5.6 7 Sur 16 Sudoeste 0 -- -- 90
2018-03-31 02:00:00 5.3 7 Sudoeste 16 Sur 0 -- -- 90
2018-03-31 01:00:00 5.1 5 Sudoeste 19 Sur 0 -- -- 90
2018-03-31 00:00:00 4.9 6 Sur 17 Sudoeste 0.4 -- -- 91
2018-03-30 23:00:00 5 5 Sudoeste 21 Sudoeste 0.4 -- -- 90
2018-03-30 22:00:00 5.3 4 Noroeste 35 Sudoeste 0.4 -- -- 90
2018-03-30 21:00:00 5.2 8 Oeste 20 Sudoeste 0 -- -- 86
2018-03-30 20:00:00 5.2 5 Sudoeste 24 Sudoeste 0.2 -- -- 88
2018-03-30 19:00:00 4.9 5 Oeste 42 Sudoeste 1.6 -- -- 87
2018-03-30 18:00:00 5.1 14 Sudoeste 30 Sur 0.6 -- -- 88
2018-03-30 17:00:00 6.2 18 Sudoeste 39 Sudoeste 0.6 -- -- 84
2018-03-30 16:00:00 7.2 12 Sur 36 Sudoeste 0 -- -- 81
2018-03-30 15:00:00 6.7 18 Sudoeste 38 Sur 0.2 -- -- 83
2018-03-30 14:00:00 7.1 10 Sur 30 Sur 0.2 -- -- 81
2018-03-30 13:00:00 6.5 9 Sur 41 Sudoeste 1 -- -- 84
2018-03-30 12:00:00 6.5 9 Sur 28 Sudoeste 0.8 -- -- 84
2018-03-30 11:00:00 6.1 12 Sudoeste 35 Sudoeste 0.2 -- -- 80
2018-03-30 10:00:00 3.8 0 Calma 4 Nordeste 0 -- -- 99
2018-03-30 09:00:00 1.9 2 Sudoeste 5 Sudoeste 0 -- -- 98
2018-03-30 08:00:00 1.4 2 Noroeste 4 Oeste 0 -- -- 97
2018-03-30 07:00:00 1.4 0 Calma 4 Noroeste 0 -- -- 94
2018-03-30 06:00:00 1.9 0 Calma 4 Oeste 0 -- -- 96
2018-03-30 05:00:00 2.1 0 Calma 5 Sudoeste 0 -- -- 94
2018-03-30 04:00:00 3 3 Sudoeste 12 Sudoeste 0.2 -- -- 92
2018-03-30 03:00:00 3.8 3 Oeste 23 Oeste 0.6 -- -- 91
2018-03-30 02:00:00 4.3 6 Sudoeste 23 Noroeste 1 -- -- 90
2018-03-30 01:00:00 5.1 8 Oeste 32 Sudoeste 0.2 -- -- 88
2018-03-30 00:00:00 5.6 7 Sudoeste 24 Sudoeste 0.2 -- -- 88
2018-03-29 23:00:00 5.7 6 Sudoeste 25 Sur 1.8 -- -- 92
2018-03-29 22:00:00 6 12 Sudoeste 30 Sur 1.4 -- -- 87
2018-03-29 21:00:00 6.1 12 Sudoeste 41 Sudoeste 2.6 -- -- 90
2018-03-29 20:00:00 8.7 6 Sudoeste 18 Sudoeste 0.2 -- -- 80
2018-03-29 19:00:00 9.2 6 Sur 39 Sudoeste 0 -- -- 84
2018-03-29 18:00:00 10 6 Sudoeste 24 Oeste 0 -- -- 79
2018-03-29 17:00:00 9.2 10 Sudoeste 23 Sudoeste 1.8 -- -- 84
2018-03-29 16:00:00 8.3 5 Oeste 20 Sudoeste 2 -- -- 86
2018-03-29 15:00:00 10.2 15 Sudoeste 34 Sudoeste 0 -- -- 77
2018-03-29 14:00:00 8.7 12 Sudoeste 29 Sudoeste 0.4 -- -- 84
2018-03-29 13:00:00 8.3 6 Sur 21 Sudoeste 0.4 -- -- 84
2018-03-29 12:00:00 8.1 9 Oeste 23 Oeste 0.2 -- -- 85
2018-03-29 11:00:00 5.7 0 Calma 3 Oeste 0 -- -- 93
2018-03-29 10:00:00 3.2 0 Calma 4 Oeste 0 -- -- 98
2018-03-29 09:00:00 2.1 0 Calma 3 Oeste 0 -- -- 97
2018-03-29 08:00:00 1.6 0 Calma 5 Oeste 0 -- -- 95
2018-03-29 07:00:00 2.6 0 Calma 4 Oeste 0 -- -- 95
2018-03-29 06:00:00 2.7 0 Calma 3 Oeste 0 -- -- 96
2018-03-29 05:00:00 2.5 0 Calma 3 Oeste 0 -- -- 94
2018-03-29 04:00:00 3.7 2 Oeste 8 Oeste 0 -- -- 90
2018-03-29 03:00:00 5.4 0 Calma 3 Noroeste 0 -- -- 88
2018-03-29 02:00:00 6.5 3 Noroeste 8 Noroeste 0 -- -- 89
2018-03-29 01:00:00 7.3 4 Noroeste 7 Noroeste 0 -- -- 89
2018-03-29 00:00:00 7.8 2 Noroeste 4 Noroeste 0 -- -- 88
2018-03-28 23:00:00 8.2 0 Calma 4 Norte 0 -- -- 90
2018-03-28 22:00:00 8.7 4 Norte 14 Noroeste 0.2 -- -- 84
2018-03-28 21:00:00 10 9 Noroeste 21 Noroeste 0 -- -- 86
2018-03-28 20:00:00 11.2 7 Noroeste 13 Noroeste 0 -- -- 85
2018-03-28 19:00:00 11 4 Noroeste 22 Sudoeste 3 -- -- 88
2018-03-28 18:00:00 12.3 12 Sudoeste 25 Sudoeste 0 -- -- 81
2018-03-28 17:00:00 12 8 Sudoeste 19 Sudoeste 0.2 -- -- 84
2018-03-28 16:00:00 11.7 9 Sudoeste 21 Sudoeste 0.2 -- -- 86
2018-03-28 15:00:00 12.3 11 Sudoeste 27 Sudoeste 0 -- -- 82
2018-03-28 14:00:00 12.3 9 Sudoeste 27 Sudoeste 0 -- -- 79
2018-03-28 13:00:00 13 13 Sudoeste 26 Sudoeste 0 -- -- 74
2018-03-28 12:00:00 11.9 10 Sudoeste 30 Sur 0 -- -- 76
2018-03-28 11:00:00 11 10 Sudoeste 21 Sudoeste 0 -- -- 82
2018-03-28 10:00:00 9.4 2 Este 10 Sudeste 0 -- -- 87
2018-03-28 09:00:00 8.7 4 Sur 9 Sur 0 -- -- 89
2018-03-28 08:00:00 8.8 0 Calma 5 Oeste 0 -- -- 87
2018-03-28 07:00:00 9.1 2 Sur 5 Sur 0 -- -- 85
2018-03-28 06:00:00 9.4 2 Sur 9 Sudoeste 0 -- -- 79
2018-03-28 05:00:00 9.1 0 Calma 6 Sudoeste 0 -- -- 86
2018-03-28 04:00:00 9.1 0 Calma 9 Noroeste 0 -- -- 86
2018-03-28 03:00:00 9 4 Oeste 18 Oeste 0 -- -- 88
2018-03-28 02:00:00 7.5 3 Oeste 14 Sudoeste 0 -- -- 95
2018-03-28 01:00:00 7.7 2 Oeste 4 Oeste 0 -- -- 84
2018-03-28 00:00:00 9.9 2 Oeste 9 Sudoeste 0 -- -- 77
2018-03-27 23:00:00 11.9 4 Sudoeste 9 Sudoeste 0 -- -- 70
2018-03-27 22:00:00 13.8 0 Calma 9 Oeste 0 -- -- 66
2018-03-27 21:00:00 16.2 2 Oeste 17 Sudoeste 0 -- -- 58
2018-03-27 20:00:00 18.4 6 Oeste 22 Noroeste 0 -- -- 49
2018-03-27 19:00:00 19.5 7 Oeste 22 Oeste 0 -- -- 32
2018-03-27 18:00:00 19.9 8 Sudoeste 20 Sudoeste 0 -- -- 52
2018-03-27 17:00:00 20.9 4 Oeste 15 Sudoeste 0 -- -- 56
2018-03-27 16:00:00 20 4 Sur 12 Sur 0 -- -- 56
2018-03-27 15:00:00 18.8 3 Norte 15 Sudoeste 0 -- -- 62
2018-03-27 14:00:00 16.4 3 Sur 10 Norte 0 -- -- 64
2018-03-27 13:00:00 13.3 2 Sudoeste 9 Sudoeste 0 -- -- 73
2018-03-27 12:00:00 11.9 2 Sudeste 6 Sudeste 0 -- -- 82
2018-03-27 11:00:00 10.3 0 Calma 3 Sudeste 0 -- -- 91
2018-03-27 10:00:00 8.8 0 Calma 4 Este 0 -- -- 94
2018-03-27 09:00:00 8.2 0 Calma 2 Este 0 -- -- 94
2018-03-27 08:00:00 8 0 Calma 0 Calma 0 -- -- 95
2018-03-27 07:00:00 7.9 0 Calma 3 Este 0 -- -- 93
2018-03-27 06:00:00 8.3 0 Calma 0 Calma 0 -- -- 92
2018-03-27 05:00:00 8.8 0 Calma 0 Calma 0 -- -- 92
2018-03-27 04:00:00 9.2 0 Calma -- -- 0 -- -- 91
2018-03-27 03:00:00 9.5 0 Calma -- -- 0 -- -- 90
2018-03-27 02:00:00 9.7 0 Calma 6 Este 0 -- -- 89
2018-03-27 01:00:00 9.9 0 Calma 6 Este 0 -- -- 89
2018-03-27 00:00:00 10.2 0 Calma 8 Este 0 -- -- 85
2018-03-26 23:00:00 10.8 0 Calma 7 Nordeste 0 -- -- 82
2018-03-26 22:00:00 11.2 0 Calma 5 Norte 0 -- -- 82
2018-03-26 21:00:00 11.7 2 Norte 12 Noroeste 0 -- -- 79
2018-03-26 20:00:00 12.4 2 Sur 11 Noroeste 0 -- -- 73
2018-03-26 19:00:00 12.9 0 Calma 4 Sur 0 -- -- 68
2018-03-26 18:00:00 12.7 3 Sur 9 Sur 0 -- -- 65
2018-03-26 17:00:00 12.5 0 Calma 7 Nordeste 0 -- -- 66
2018-03-26 16:00:00 12.1 3 Sudoeste 6 Sudoeste 0 -- -- 64
2018-03-26 15:00:00 11.3 2 Sudoeste 6 Sudoeste 0 -- -- 60
2018-03-26 14:00:00 10.5 2 Oeste 6 Sudoeste 0 -- -- 71
2018-03-26 13:00:00 9.3 0 Calma 5 Nordeste 0 -- -- 71
2018-03-26 12:00:00 7.5 2 Nordeste 5 Nordeste 0 -- -- 87
2018-03-26 11:00:00 5.9 0 Calma 5 Norte 0 -- -- 91
2018-03-26 10:00:00 4.6 2 Este 5 Noroeste 0 -- -- 94
2018-03-26 09:00:00 3.6 0 Calma 4 Noroeste 0 -- -- 95
2018-03-26 08:00:00 3.3 2 Noroeste 4 Noroeste 0 -- -- 95
2018-03-26 07:00:00 3 0 Calma 5 Noroeste 0 -- -- 96
2018-03-26 06:00:00 2.6 2 Noroeste 5 Noroeste 0 -- -- 95
2018-03-26 05:00:00 2.5 0 Calma 3 Noroeste 0 -- -- 94
2018-03-26 04:00:00 3.1 0 Calma 3 Oeste 0 -- -- 93
2018-03-26 03:00:00 2.9 0 Calma 5 Noroeste 0 -- -- 96
2018-03-26 02:00:00 2.4 0 Calma 0 Calma 0 -- -- 92
2018-03-26 01:00:00 2.9 0 Calma 3 Noroeste 0 -- -- 91
2018-03-26 00:00:00 4 0 Calma 6 Noroeste 0 -- -- 87
2018-03-25 23:00:00 5.2 0 Calma 2 Noroeste 0 -- -- 84
2018-03-25 22:00:00 6.8 0 Calma 16 Noroeste 0 -- -- 77
2018-03-25 21:00:00 8.4 5 Noroeste 14 Noroeste 0 -- -- 73
2018-03-25 20:00:00 10.2 10 Noroeste 26 Noroeste 0 -- -- 64
2018-03-25 19:00:00 10.6 11 Norte 23 Noroeste 0 -- -- 58
2018-03-25 18:00:00 11.6 9 Noroeste 30 Noroeste 0 -- -- 64
2018-03-25 17:00:00 12.6 10 Norte 28 Norte 0 -- -- 56
2018-03-25 16:00:00 12.4 15 Noroeste 29 Norte 0 -- -- 63
2018-03-25 15:00:00 10.8 3 Noroeste 29 Norte 0.2 -- -- 70
2018-03-25 14:00:00 10.4 4 Nordeste 22 Noroeste 0 -- -- 77
2018-03-25 13:00:00 9 3 Este 9 Norte 0.4 -- -- 81
2018-03-25 12:00:00 7.3 3 Sudoeste 8 Sudoeste 0.2 -- -- 88
2018-03-25 11:00:00 6.4 3 Sudoeste 7 Sudoeste 0 -- -- 90
2018-03-25 10:00:00 5.3 0 Calma 3 Sudoeste 0 -- -- 95
2018-03-25 09:00:00 4.6 0 Calma 4 Sudoeste 0.2 -- -- 95
2018-03-25 08:00:00 4.6 0 Calma 5 Sudoeste 0 -- -- 96
2018-03-25 07:00:00 4.5 0 Calma 4 Sudoeste 0 -- -- 95
2018-03-25 06:00:00 4.6 0 Calma 5 Oeste 0 -- -- 94
2018-03-25 05:00:00 4.7 0 Calma 2 Oeste 0 -- -- 94
2018-03-25 03:00:00 5.2 0 Calma 2 Sudoeste 0.2 -- -- 95
2018-03-25 01:00:00 5.2 0 Calma 2 Sudoeste 0.4 -- -- 94
2018-03-25 00:00:00 5.2 0 Calma 4 Sudoeste 0.6 -- -- 92
2018-03-24 23:00:00 5.4 0 Calma 2 Sudoeste 0 -- -- 89
2018-03-24 22:00:00 5.6 3 Oeste 12 Sudoeste 0 -- -- 87
2018-03-24 21:00:00 6.1 2 Sudoeste 25 Noroeste 0.2 -- -- 86
2018-03-24 20:00:00 6.8 9 Noroeste 21 Noroeste 0 -- -- 83
2018-03-24 19:00:00 7.4 5 Sudoeste 14 Oeste 0 -- -- 78
2018-03-24 18:00:00 7.8 5 Oeste 31 Oeste 0 -- -- 80
2018-03-24 17:00:00 9.1 8 Noroeste 17 Sudoeste 0.6 -- -- 85
2018-03-24 16:00:00 9 6 Sudoeste 38 Noroeste 0.4 -- -- 78
2018-03-24 15:00:00 10.6 11 Noroeste 40 Noroeste 0 -- -- 78
2018-03-24 14:00:00 9 15 Noroeste 36 Noroeste 0.2 -- -- 84
2018-03-24 13:00:00 8.2 17 Noroeste 35 Noroeste 0.8 -- -- 86
2018-03-24 12:00:00 7.3 11 Noroeste 41 Noroeste 1 -- -- 87
2018-03-24 11:00:00 6.9 13 Noroeste 33 Noroeste 1.2 -- -- 90
2018-03-24 10:00:00 6 9 Noroeste 29 Oeste 1.2 -- -- 91
2018-03-24 09:00:00 5.4 8 Oeste 32 Noroeste 1.6 -- -- 91
2018-03-24 08:00:00 5.1 10 Oeste 35 Noroeste 0.4 -- -- 89
2018-03-24 07:00:00 4.8 5 Oeste 30 Noroeste 0.4 -- -- 88
2018-03-24 06:00:00 4.5 5 Oeste 28 Oeste 0.6 -- -- 91
2018-03-24 05:00:00 4.9 5 Sudoeste 22 Sudoeste 0.8 -- -- 90
2018-03-24 04:00:00 4.6 6 Sudoeste 18 Norte 0.8 -- -- 89
2018-03-24 03:00:00 4.4 6 Sudoeste 12 Sudoeste 0 -- -- 89
2018-03-24 02:00:00 4.2 6 Sudoeste 14 Noroeste 0.2 -- -- 90
2018-03-24 01:00:00 3.9 0 Calma 8 Sur 0 -- -- 93
2018-03-24 00:00:00 3.8 3 Sur 9 Sur 0 -- -- 93
2018-03-23 23:00:00 4 4 Sudoeste 41 Oeste 1.4 -- -- 90
2018-03-23 22:00:00 5.7 0 Calma 11 Sudoeste 0 -- -- 92
2018-03-23 21:00:00 6.2 0 Calma 15 Sudoeste 0 -- -- 91
2018-03-23 20:00:00 6.8 6 Sudoeste 55 Norte 4.6 -- -- 86
2018-03-23 19:00:00 9.7 8 Sudoeste 28 Sur 0.8 -- -- 89
2018-03-23 18:00:00 10.5 13 Sudoeste 39 Sudoeste 0.4 -- -- 81
2018-03-23 17:00:00 12 20 Sudoeste 49 Sudoeste 0 -- -- 72
2018-03-23 16:00:00 12.8 24 Sudoeste 53 Sudoeste 0 -- -- 67
2018-03-23 15:00:00 12.6 12 Sudoeste 34 Sudoeste 0 -- -- 73
2018-03-23 14:00:00 13.4 10 Sudoeste 27 Sudoeste 0 -- -- 77
2018-03-23 13:00:00 11.5 4 Sudoeste 11 Sudoeste 0 -- -- 88
2018-03-23 12:00:00 10.2 0 Calma -- -- 0 -- -- 90
2018-03-23 11:00:00 9.3 0 Calma -- -- 0 -- -- 92
2018-03-23 10:00:00 8.4 0 Calma -- -- 0 -- -- 95
2018-03-23 09:00:00 7.6 0 Calma -- -- 0 -- -- 95
2018-03-23 08:00:00 7.3 0 Calma -- -- 0 -- -- 94
2018-03-23 07:00:00 7.2 0 Calma -- -- 0.2 -- -- 94
2018-03-23 06:00:00 7.1 0 Calma -- -- 0.2 -- -- 94
2018-03-23 05:00:00 7 0 Calma -- -- 0.6 -- -- 92
2018-03-23 04:00:00 7.2 0 Calma -- -- 0 -- -- 91
2018-03-23 03:00:00 7.5 0 Calma -- -- 0.4 -- -- 90
2018-03-23 02:00:00 7.8 0 Calma 0 Calma 0.6 -- -- 87
2018-03-23 01:00:00 8.4 0 Calma 14 Oeste 0.2 -- -- 82
2018-03-23 00:00:00 9.5 2 Oeste 13 Sudoeste 0 -- -- 73
2018-03-22 23:00:00 10.1 4 Sudoeste 17 Sudoeste 0 -- -- 70
2018-03-22 22:00:00 10.4 8 Sudoeste 14 Sudoeste 0 -- -- 68
2018-03-22 21:00:00 10.2 0 Calma 7 Noroeste 0 -- -- 62
2018-03-22 20:00:00 12.5 0 Calma 11 Noroeste 0 -- -- 58
2018-03-22 19:00:00 14.5 4 Noroeste 27 Sudoeste 0 -- -- 48
2018-03-22 18:00:00 16.2 7 Sudoeste 16 Sudoeste 0 -- -- 40
2018-03-22 17:00:00 16.3 7 Sudoeste 20 Sudoeste 0 -- -- 34
2018-03-22 16:00:00 17.7 7 Sudoeste 16 Sudoeste 0 -- -- 34
2018-03-22 15:00:00 16.7 4 Sudoeste 13 Sudoeste 0 -- -- 33
2018-03-22 14:00:00 15.2 4 Noroeste 9 Oeste 0 -- -- 46
2018-03-22 13:00:00 12.4 2 Noroeste 6 Sudoeste 0 -- -- 49
2018-03-22 12:00:00 8 3 Sudoeste 6 Sudoeste 0 -- -- 66
2018-03-22 11:00:00 3.8 0 Calma 5 Sudoeste 0 -- -- 82
2018-03-22 10:00:00 -0.1 2 Sudoeste 7 Sudoeste 0 -- -- 92
2018-03-22 09:00:00 -2.4 0 Calma 2 Noroeste 0 -- -- 95
2018-03-22 08:00:00 -3.7 0 Calma 2 Noroeste 0 -- -- 91
2018-03-22 07:00:00 -3.4 0 Calma 2 Nordeste 0 -- -- 91
2018-03-22 06:00:00 -2.8 0 Calma 2 Oeste 0 -- -- 90
2018-03-22 05:00:00 -2.4 0 Calma 2 Oeste 0 -- -- 90
2018-03-22 04:00:00 -1.8 0 Calma 2 Oeste 0 -- -- 90
2018-03-22 03:00:00 -1.4 0 Calma 2 Oeste 0 -- -- 88
2018-03-22 02:00:00 -0.5 0 Calma 2 Oeste 0 -- -- 86
2018-03-22 01:00:00 0.9 0 Calma 3 Oeste 0 -- -- 82
2018-03-22 00:00:00 2.5 0 Calma 2 Oeste 0 -- -- 79
2018-03-21 23:00:00 4 0 Calma 8 Este 0 -- -- 75
2018-03-21 22:00:00 5.4 0 Calma 21 Norte 0 -- -- 70
2018-03-21 21:00:00 6.6 5 Norte 15 Noroeste 0 -- -- 66
2018-03-21 20:00:00 8.3 7 Noroeste 21 Noroeste 0 -- -- 61
2018-03-21 19:00:00 10.2 8 Norte 26 Norte 0 -- -- 53
2018-03-21 18:00:00 11.4 12 Norte 32 Norte 0 -- -- 49
2018-03-21 17:00:00 12.6 15 Norte 32 Norte 0 -- -- 46
2018-03-21 16:00:00 13.9 14 Norte 32 Norte 0 -- -- 46
2018-03-21 15:00:00 14 14 Norte 31 Noroeste 0 -- -- 48
2018-03-21 14:00:00 13.8 10 Norte 31 Norte 0 -- -- 48
2018-03-21 13:00:00 11.6 5 Sur 15 Noroeste 0 -- -- 57
2018-03-21 12:00:00 9.9 2 Sudeste 9 Sur 0 -- -- 57
2018-03-21 11:00:00 6.6 0 Calma 5 Sudoeste 0 -- -- 71
2018-03-21 10:00:00 3.1 0 Calma 4 Sudoeste 0 -- -- 81
2018-03-21 09:00:00 -1 0 Calma 2 Sudoeste 0 -- -- 93
2018-03-21 08:00:00 -2.1 0 Calma 3 Oeste 0 -- -- 90
2018-03-21 07:00:00 -1.7 0 Calma 4 Sudoeste 0 -- -- 89
2018-03-21 06:00:00 -0.8 3 Oeste 9 Norte 0 -- -- 88
2018-03-21 05:00:00 -0.4 3 Sur 9 Sudeste 0 -- -- 89
2018-03-21 04:00:00 -0.2 0 Calma 5 Nordeste 0 -- -- 86
2018-03-21 03:00:00 1 0 Calma 13 Este 0 -- -- 79
2018-03-21 02:00:00 2.6 7 Norte 19 Norte 0 -- -- 72
2018-03-21 01:00:00 2.4 5 Norte 15 Norte 0 -- -- 76
2018-03-21 00:00:00 2.7 0 Calma 10 Nordeste 0 -- -- 78